createdAt,value
2018-01-25T00:00:19.709Z,0
2018-01-25T00:01:29.926Z,0
2018-01-25T00:02:40.068Z,0
2018-01-25T00:03:50.349Z,0
2018-01-25T00:05:00.540Z,0
2018-01-25T00:06:10.775Z,0
2018-01-25T00:07:20.964Z,0
2018-01-25T00:08:31.188Z,0
2018-01-25T00:09:41.466Z,0
2018-01-25T00:10:51.657Z,0
2018-01-25T00:12:01.904Z,0
2018-01-25T00:13:12.144Z,0
2018-01-25T00:14:22.398Z,0
2018-01-25T00:15:32.590Z,0
2018-01-25T00:16:42.824Z,0
2018-01-25T00:17:53.004Z,0
2018-01-25T00:19:03.190Z,0
2018-01-25T00:20:13.372Z,0
2018-01-25T00:21:23.588Z,0
2018-01-25T00:22:33.909Z,0
2018-01-25T00:23:44.115Z,0
2018-01-25T00:24:54.282Z,0
2018-01-25T00:26:04.478Z,0
2018-01-25T00:27:14.721Z,0
2018-01-25T00:28:25.107Z,0
2018-01-25T00:29:35.240Z,0
2018-01-25T00:30:45.433Z,0
2018-01-25T00:31:55.635Z,0
2018-01-25T00:33:05.846Z,0
2018-01-25T00:34:16.028Z,0
2018-01-25T00:35:26.229Z,0
2018-01-25T00:36:36.439Z,0
2018-01-25T00:37:46.713Z,0
2018-01-25T00:38:56.231Z,0
2018-01-25T00:40:06.394Z,0
2018-01-25T00:41:16.584Z,0
2018-01-25T00:42:26.722Z,0
2018-01-25T00:43:36.901Z,0
2018-01-25T00:44:47.046Z,0
2018-01-25T00:45:57.281Z,0
2018-01-25T00:47:07.476Z,0
2018-01-25T00:48:17.660Z,0
2018-01-25T00:49:28.030Z,0
2018-01-25T00:50:38.220Z,0
2018-01-25T00:51:48.405Z,0
2018-01-25T00:52:58.582Z,0
2018-01-25T00:54:08.469Z,0
2018-01-25T00:55:18.693Z,0
2018-01-25T00:56:28.861Z,0
2018-01-25T00:57:39.003Z,0
2018-01-25T00:58:49.205Z,0
2018-01-25T00:59:59.451Z,0
2018-01-25T01:01:09.309Z,0
2018-01-25T01:02:19.529Z,0
2018-01-25T01:03:29.707Z,0
2018-01-25T01:04:39.889Z,0
2018-01-25T01:05:50.096Z,0
2018-01-25T01:07:00.318Z,0
2018-01-25T01:08:10.525Z,0
2018-01-25T01:09:20.706Z,0
2018-01-25T01:10:30.866Z,0
2018-01-25T01:11:40.979Z,0
2018-01-25T01:12:51.103Z,0
2018-01-25T01:14:01.258Z,0
2018-01-25T01:15:11.398Z,0
2018-01-25T01:16:21.618Z,0
2018-01-25T01:17:31.795Z,0
2018-01-25T01:18:41.927Z,0
2018-01-25T01:19:52.073Z,0
2018-01-25T01:21:02.192Z,0
2018-01-25T01:22:12.328Z,0
2018-01-25T01:23:22.447Z,0
2018-01-25T01:24:32.654Z,0
2018-01-25T01:25:42.986Z,0
2018-01-25T01:26:53.152Z,0
2018-01-25T01:28:03.368Z,0
2018-01-25T01:29:13.575Z,0
2018-01-25T01:30:23.847Z,0
2018-01-25T01:31:34.145Z,0
2018-01-25T01:32:44.020Z,0
2018-01-25T01:33:54.160Z,0
2018-01-25T01:35:04.314Z,0
2018-01-25T01:36:14.495Z,0
2018-01-25T01:37:24.725Z,0
2018-01-25T01:38:34.921Z,0
2018-01-25T01:39:44.787Z,0
2018-01-25T01:40:54.936Z,0
2018-01-25T01:42:05.162Z,0
2018-01-25T01:43:15.091Z,0
2018-01-25T01:44:25.200Z,0
2018-01-25T01:45:35.328Z,0
2018-01-25T01:46:45.436Z,0
2018-01-25T01:47:55.692Z,0
2018-01-25T01:49:05.817Z,0
2018-01-25T01:50:15.916Z,0
2018-01-25T01:51:26.018Z,0
2018-01-25T01:52:36.135Z,0
2018-01-25T01:53:46.277Z,0
2018-01-25T01:54:56.436Z,0
2018-01-25T01:56:06.380Z,0
2018-01-25T01:57:16.542Z,0
2018-01-25T01:58:26.743Z,0
2018-01-25T01:59:36.967Z,0
2018-01-25T02:00:46.859Z,0
2018-01-25T02:01:56.965Z,0
2018-01-25T02:03:07.132Z,0
2018-01-25T02:04:17.303Z,0
2018-01-25T02:05:27.623Z,0
2018-01-25T02:06:37.879Z,0
2018-01-25T02:07:48.003Z,0
2018-01-25T02:08:58.209Z,0
2018-01-25T02:10:08.489Z,0
2018-01-25T02:11:18.422Z,0
2018-01-25T02:12:28.563Z,0
2018-01-25T02:13:38.793Z,0
2018-01-25T02:14:48.921Z,0
2018-01-25T02:15:59.123Z,0
2018-01-25T02:17:09.239Z,0
2018-01-25T02:18:19.441Z,0
2018-01-25T02:19:29.663Z,0
2018-01-25T02:20:39.793Z,0
2018-01-25T02:21:49.671Z,0
2018-01-25T02:22:59.907Z,0
2018-01-25T02:24:10.040Z,0
2018-01-25T02:25:20.170Z,0
2018-01-25T02:26:30.289Z,0
2018-01-25T02:27:40.389Z,0
2018-01-25T02:28:50.596Z,0
2018-01-25T02:30:00.833Z,0
2018-01-25T02:31:10.969Z,0
2018-01-25T02:32:21.196Z,0
2018-01-25T02:33:31.354Z,0
2018-01-25T02:34:41.495Z,0
2018-01-25T02:35:51.361Z,0
2018-01-25T02:37:01.529Z,0
2018-01-25T02:38:11.655Z,0
2018-01-25T02:39:21.783Z,0
2018-01-25T02:40:31.932Z,0
2018-01-25T02:41:42.059Z,0
2018-01-25T02:42:52.164Z,0
2018-01-25T02:44:02.302Z,0
2018-01-25T02:45:12.455Z,0
2018-01-25T02:46:22.603Z,0
2018-01-25T02:47:32.744Z,0
2018-01-25T02:48:42.528Z,0
2018-01-25T02:49:52.644Z,0
2018-01-25T02:51:02.895Z,0
2018-01-25T02:52:13.006Z,0
2018-01-25T02:53:23.157Z,0
2018-01-25T02:54:33.286Z,0
2018-01-25T02:55:43.385Z,0
2018-01-25T02:56:53.509Z,0
2018-01-25T02:58:03.696Z,0
2018-01-25T02:59:13.962Z,0
2018-01-25T03:00:24.088Z,0
2018-01-25T03:01:34.348Z,0
2018-01-25T03:02:44.503Z,0
2018-01-25T03:03:54.689Z,0
2018-01-25T03:05:04.978Z,0
2018-01-25T03:06:15.222Z,0
2018-01-25T03:07:25.397Z,0
2018-01-25T03:08:35.599Z,0
2018-01-25T03:09:45.841Z,0
2018-01-25T03:10:56.069Z,0
2018-01-25T03:12:07.330Z,0
2018-01-25T03:13:17.485Z,0
2018-01-25T03:14:27.796Z,0
2018-01-25T03:15:37.967Z,0
2018-01-25T03:16:48.268Z,0
2018-01-25T03:17:58.429Z,0
2018-01-25T03:19:08.668Z,0
2018-01-25T03:20:18.856Z,0
2018-01-25T03:21:29.103Z,0
2018-01-25T03:22:39.317Z,0
2018-01-25T03:23:49.472Z,0
2018-01-25T03:24:59.356Z,0
2018-01-25T03:26:09.234Z,0
2018-01-25T03:27:19.330Z,0
2018-01-25T03:28:29.457Z,0
2018-01-25T03:29:39.624Z,0
2018-01-25T03:30:49.852Z,0
2018-01-25T03:32:00.006Z,0
2018-01-25T03:33:10.142Z,0
2018-01-25T03:34:20.262Z,0
2018-01-25T03:35:30.412Z,0
2018-01-25T03:36:40.524Z,0
2018-01-25T03:37:50.768Z,0
2018-01-25T03:39:00.994Z,0
2018-01-25T03:40:10.872Z,0
2018-01-25T03:41:20.982Z,0
2018-01-25T03:42:32.081Z,0
2018-01-25T03:43:42.376Z,0
2018-01-25T03:44:52.549Z,0
2018-01-25T03:46:02.773Z,0
2018-01-25T03:47:12.564Z,0
2018-01-25T03:48:22.732Z,0
2018-01-25T03:49:32.885Z,0
2018-01-25T03:50:43.135Z,0
2018-01-25T03:51:53.328Z,0
2018-01-25T03:53:03.231Z,0
2018-01-25T03:54:13.472Z,0
2018-01-25T03:55:23.599Z,0
2018-01-25T03:56:33.822Z,0
2018-01-25T03:57:44.067Z,0
2018-01-25T03:58:55.235Z,0
2018-01-25T04:00:05.454Z,0
2018-01-25T04:01:15.606Z,0
2018-01-25T04:02:25.778Z,0
2018-01-25T04:03:35.895Z,0
2018-01-25T04:04:46.024Z,0
2018-01-25T04:05:56.150Z,0
2018-01-25T04:07:06.272Z,0
2018-01-25T04:08:16.395Z,0
2018-01-25T04:09:26.539Z,0
2018-01-25T04:10:36.702Z,0
2018-01-25T04:11:46.806Z,0
2018-01-25T04:12:56.709Z,0
2018-01-25T04:14:06.635Z,0
2018-01-25T04:15:16.870Z,0
2018-01-25T04:16:27.089Z,0
2018-01-25T04:17:37.291Z,0
2018-01-25T04:18:47.493Z,0
2018-01-25T04:19:57.682Z,0
2018-01-25T04:21:07.821Z,0
2018-01-25T04:22:17.952Z,0
2018-01-25T04:23:28.068Z,0
2018-01-25T04:24:38.414Z,0
2018-01-25T04:25:48.547Z,0
2018-01-25T04:26:58.674Z,0
2018-01-25T04:28:08.777Z,0
2018-01-25T04:29:19.008Z,0
2018-01-25T04:30:29.222Z,0
2018-01-25T04:31:39.466Z,0
2018-01-25T04:32:49.336Z,0
2018-01-25T04:33:59.450Z,0
2018-01-25T04:35:09.616Z,0
2018-01-25T04:36:19.909Z,0
2018-01-25T04:37:30.084Z,0
2018-01-25T04:38:39.956Z,0
2018-01-25T04:39:50.136Z,0
2018-01-25T04:41:00.295Z,0
2018-01-25T04:42:10.548Z,0
2018-01-25T04:43:20.456Z,0
2018-01-25T04:44:30.583Z,0
2018-01-25T04:45:40.746Z,0
2018-01-25T04:46:50.886Z,0
2018-01-25T04:48:01.046Z,0
2018-01-25T04:49:11.145Z,0
2018-01-25T04:50:21.257Z,0
2018-01-25T04:51:31.374Z,0
2018-01-25T04:52:41.292Z,0
2018-01-25T04:53:51.466Z,0
2018-01-25T04:55:01.572Z,0
2018-01-25T04:56:11.425Z,0
2018-01-25T04:57:21.526Z,0
2018-01-25T04:58:31.665Z,0
2018-01-25T04:59:41.831Z,0
2018-01-25T05:00:52.109Z,0
2018-01-25T05:02:02.350Z,0
2018-01-25T05:03:12.579Z,0
2018-01-25T05:04:22.767Z,0
2018-01-25T05:05:33.009Z,0
2018-01-25T05:06:43.236Z,0
2018-01-25T05:07:53.473Z,0
2018-01-25T05:09:03.598Z,0
2018-01-25T05:10:13.771Z,0
2018-01-25T05:11:23.877Z,0
2018-01-25T05:12:33.998Z,0
2018-01-25T05:13:44.107Z,0
2018-01-25T05:14:54.262Z,0
2018-01-25T05:16:04.444Z,0
2018-01-25T05:17:14.548Z,0
2018-01-25T05:18:25.002Z,0
2018-01-25T05:19:35.200Z,0
2018-01-25T05:20:45.426Z,0
2018-01-25T05:21:55.556Z,0
2018-01-25T05:23:05.755Z,0
2018-01-25T05:24:15.663Z,0
2018-01-25T05:25:25.858Z,0
2018-01-25T05:26:35.977Z,0
2018-01-25T05:27:47.142Z,0
2018-01-25T05:28:57.367Z,0
2018-01-25T05:30:07.535Z,0
2018-01-25T05:31:17.708Z,0
2018-01-25T05:32:27.831Z,0
2018-01-25T05:33:37.944Z,0
2018-01-25T05:34:47.840Z,0
2018-01-25T05:35:57.944Z,0
2018-01-25T05:37:08.136Z,0
2018-01-25T05:38:18.233Z,0
2018-01-25T05:39:28.444Z,0
2018-01-25T05:40:38.257Z,0
2018-01-25T05:41:48.374Z,0
2018-01-25T05:42:58.522Z,0
2018-01-25T05:44:08.655Z,0
2018-01-25T05:45:18.764Z,0
2018-01-25T05:46:29.003Z,0
2018-01-25T05:47:39.171Z,0
2018-01-25T05:48:49.288Z,0
2018-01-25T05:49:59.574Z,0
2018-01-25T05:51:09.711Z,0
2018-01-25T05:52:19.492Z,0
2018-01-25T05:53:29.693Z,0
2018-01-25T05:54:39.842Z,0
2018-01-25T05:55:49.951Z,0
2018-01-25T05:57:00.156Z,0
2018-01-25T05:58:10.301Z,0
2018-01-25T05:59:20.467Z,0
2018-01-25T06:00:30.599Z,0
2018-01-25T06:01:40.735Z,0
2018-01-25T06:02:50.929Z,0
2018-01-25T06:04:01.128Z,0
2018-01-25T06:05:11.268Z,0
2018-01-25T06:06:21.166Z,0
2018-01-25T06:07:31.393Z,0
2018-01-25T06:08:41.541Z,0
2018-01-25T06:09:51.689Z,0
2018-01-25T06:11:01.927Z,0
2018-01-25T06:12:12.123Z,0
2018-01-25T06:13:22.011Z,0
2018-01-25T06:14:31.898Z,0
2018-01-25T06:15:42.051Z,0
2018-01-25T06:16:52.161Z,0
2018-01-25T06:18:02.321Z,0
2018-01-25T06:19:12.451Z,0
2018-01-25T06:20:22.571Z,0
2018-01-25T06:21:32.686Z,0
2018-01-25T06:22:42.850Z,0
2018-01-25T06:23:53.113Z,0
2018-01-25T06:25:03.251Z,0
2018-01-25T06:26:13.435Z,0
2018-01-25T06:27:23.628Z,0
2018-01-25T06:28:33.893Z,0
2018-01-25T06:29:44.021Z,0
2018-01-25T06:30:53.877Z,0
2018-01-25T06:32:04.096Z,0
2018-01-25T06:33:14.250Z,0
2018-01-25T06:34:24.367Z,0
2018-01-25T06:35:34.565Z,0
2018-01-25T06:36:44.506Z,0
2018-01-25T06:37:54.747Z,0
2018-01-25T06:39:04.936Z,0
2018-01-25T06:40:15.231Z,0
2018-01-25T06:41:25.406Z,0
2018-01-25T06:42:35.661Z,0
2018-01-25T06:43:45.807Z,0
2018-01-25T06:44:55.937Z,0
2018-01-25T06:46:06.247Z,4
2018-01-25T06:47:16.524Z,4
2018-01-25T06:48:26.708Z,4
2018-01-25T06:49:36.863Z,0
2018-01-25T06:50:46.865Z,4
2018-01-25T06:51:57.003Z,4
2018-01-25T06:53:07.136Z,4
2018-01-25T06:54:17.275Z,4
2018-01-25T06:55:27.540Z,8
2018-01-25T06:56:37.728Z,8
2018-01-25T06:57:47.694Z,12
2018-01-25T06:58:57.833Z,12
2018-01-25T07:00:07.706Z,16
2018-01-25T07:01:17.820Z,20
2018-01-25T07:02:27.965Z,20
2018-01-25T07:03:37.819Z,24
2018-01-25T07:04:47.934Z,28
2018-01-25T07:05:58.054Z,28
2018-01-25T07:07:08.243Z,32
2018-01-25T07:08:18.520Z,40
2018-01-25T07:09:28.739Z,52
2018-01-25T07:10:39.001Z,52
2018-01-25T07:11:49.204Z,56
2018-01-25T07:12:59.370Z,56
2018-01-25T07:14:09.603Z,56
2018-01-25T07:15:19.858Z,64
2018-01-25T07:16:30.090Z,68
2018-01-25T07:17:40.252Z,76
2018-01-25T07:18:50.570Z,100
2018-01-25T07:20:00.761Z,120
2018-01-25T07:21:10.970Z,112
2018-01-25T07:22:21.185Z,116
2018-01-25T07:23:31.308Z,116
2018-01-25T07:24:41.271Z,112
2018-01-25T07:25:51.397Z,108
2018-01-25T07:27:01.639Z,108
2018-01-25T07:28:11.811Z,120
2018-01-25T07:29:21.982Z,136
2018-01-25T07:30:32.175Z,136
2018-01-25T07:31:42.362Z,168
2018-01-25T07:32:52.353Z,208
2018-01-25T07:34:02.478Z,204
2018-01-25T07:35:12.442Z,208
2018-01-25T07:36:22.575Z,212
2018-01-25T07:37:32.686Z,232
2018-01-25T07:38:42.828Z,260
2018-01-25T07:39:52.592Z,264
2018-01-25T07:41:02.801Z,284
2018-01-25T07:42:12.985Z,316
2018-01-25T07:43:23.192Z,324
2018-01-25T07:44:33.495Z,316
2018-01-25T07:45:43.662Z,348
2018-01-25T07:46:53.896Z,392
2018-01-25T07:48:04.136Z,448
2018-01-25T07:49:14.282Z,536
2018-01-25T07:50:24.432Z,516
2018-01-25T07:51:34.601Z,424
2018-01-25T07:52:44.761Z,400
2018-01-25T07:53:54.899Z,416
2018-01-25T07:55:05.030Z,420
2018-01-25T07:56:15.220Z,428
2018-01-25T07:57:25.368Z,460
2018-01-25T07:58:35.000Z,468
2018-01-25T07:59:45.157Z,440
2018-01-25T08:00:55.322Z,448
2018-01-25T08:02:05.460Z,436
2018-01-25T08:03:15.663Z,464
2018-01-25T08:04:25.838Z,504
2018-01-25T08:05:35.989Z,532
2018-01-25T08:06:46.098Z,592
2018-01-25T08:07:56.398Z,624
2018-01-25T08:09:06.618Z,644
2018-01-25T08:10:16.777Z,648
2018-01-25T08:11:26.885Z,672
2018-01-25T08:12:36.733Z,736
2018-01-25T08:13:46.960Z,884
2018-01-25T08:14:57.135Z,996
2018-01-25T08:16:07.298Z,920
2018-01-25T08:17:17.721Z,928
2018-01-25T08:18:27.935Z,928
2018-01-25T08:19:38.146Z,976
2018-01-25T08:20:48.296Z,992
2018-01-25T08:21:58.904Z,988
2018-01-25T08:23:08.682Z,956
2018-01-25T08:24:18.803Z,940
2018-01-25T08:25:28.997Z,924
2018-01-25T08:26:39.125Z,928
2018-01-25T08:27:49.305Z,972
2018-01-25T08:28:59.445Z,968
2018-01-25T08:30:09.714Z,1072
2018-01-25T08:31:19.877Z,1112
2018-01-25T08:32:29.725Z,1232
2018-01-25T08:33:39.924Z,1296
2018-01-25T08:34:50.122Z,1352
2018-01-25T08:36:00.309Z,1392
2018-01-25T08:37:10.479Z,1276
2018-01-25T08:38:20.617Z,1184
2018-01-25T08:39:30.975Z,1176
2018-01-25T08:40:41.217Z,1216
2018-01-25T08:41:51.513Z,1296
2018-01-25T08:43:01.686Z,1300
2018-01-25T08:44:11.960Z,1308
2018-01-25T08:45:22.086Z,1360
2018-01-25T08:46:32.257Z,1368
2018-01-25T08:47:42.461Z,1476
2018-01-25T08:48:52.775Z,1512
2018-01-25T08:50:03.049Z,1400
2018-01-25T08:51:13.255Z,1260
2018-01-25T08:52:23.424Z,1192
2018-01-25T08:53:33.635Z,1216
2018-01-25T08:54:43.829Z,1252
2018-01-25T08:55:53.708Z,1348
2018-01-25T08:57:03.859Z,1432
2018-01-25T08:58:14.011Z,1484
2018-01-25T08:59:23.888Z,1812
2018-01-25T09:00:34.032Z,2184
2018-01-25T09:01:43.902Z,1980
2018-01-25T09:02:54.053Z,1792
2018-01-25T09:04:04.186Z,1788
2018-01-25T09:05:14.342Z,1840
2018-01-25T09:06:24.482Z,1880
2018-01-25T09:07:34.680Z,2176
2018-01-25T09:08:44.811Z,2276
2018-01-25T09:09:54.942Z,2480
2018-01-25T09:11:05.082Z,2556
2018-01-25T09:12:15.282Z,2812
2018-01-25T09:13:26.478Z,2872
2018-01-25T09:14:36.610Z,2968
2018-01-25T09:15:46.815Z,3392
2018-01-25T09:16:56.959Z,3360
2018-01-25T09:18:07.329Z,3560
2018-01-25T09:19:17.610Z,3888
2018-01-25T09:20:27.743Z,4264
2018-01-25T09:21:37.974Z,4280
2018-01-25T09:22:48.217Z,4140
2018-01-25T09:23:58.431Z,3840
2018-01-25T09:25:08.640Z,3672
2018-01-25T09:26:18.860Z,3212
2018-01-25T09:27:29.042Z,3156
2018-01-25T09:28:39.353Z,3328
2018-01-25T09:29:49.565Z,3260
2018-01-25T09:30:59.792Z,3468
2018-01-25T09:32:09.987Z,3500
2018-01-25T09:33:20.130Z,3448
2018-01-25T09:34:30.276Z,3312
2018-01-25T09:35:40.394Z,3208
2018-01-25T09:36:50.543Z,3244
2018-01-25T09:38:00.760Z,3104
2018-01-25T09:39:11.952Z,3068
2018-01-25T09:40:22.114Z,3152
2018-01-25T09:41:32.279Z,3184
2018-01-25T09:42:41.971Z,3200
2018-01-25T09:43:52.116Z,3184
2018-01-25T09:45:02.237Z,3352
2018-01-25T09:46:12.643Z,3336
2018-01-25T09:47:22.822Z,3252
2018-01-25T09:48:33.043Z,3480
2018-01-25T09:49:43.016Z,3484
2018-01-25T09:50:53.176Z,3268
2018-01-25T09:52:03.295Z,3096
2018-01-25T09:53:13.161Z,3028
2018-01-25T09:54:23.457Z,2780
2018-01-25T09:55:33.499Z,3052
2018-01-25T09:56:44.638Z,3336
2018-01-25T09:57:54.934Z,3112
2018-01-25T09:59:05.080Z,3036
2018-01-25T10:00:15.401Z,3076
2018-01-25T10:01:25.570Z,3168
2018-01-25T10:02:35.465Z,3424
2018-01-25T10:03:45.607Z,3388
2018-01-25T10:04:55.775Z,3392
2018-01-25T10:06:06.061Z,3560
2018-01-25T10:07:16.208Z,3832
2018-01-25T10:08:26.408Z,4164
2018-01-25T10:09:37.548Z,4580
2018-01-25T10:10:47.702Z,4704
2018-01-25T10:11:57.864Z,4048
2018-01-25T10:13:08.025Z,3556
2018-01-25T10:14:18.166Z,3268
2018-01-25T10:15:28.361Z,2952
2018-01-25T10:16:38.487Z,2652
2018-01-25T10:17:48.665Z,2440
2018-01-25T10:18:58.868Z,2384
2018-01-25T10:20:09.106Z,2320
2018-01-25T10:21:19.255Z,2292
2018-01-25T10:22:29.581Z,2376
2018-01-25T10:23:39.781Z,2504
2018-01-25T10:24:50.001Z,2608
2018-01-25T10:26:00.174Z,2788
2018-01-25T10:27:10.352Z,2932
2018-01-25T10:28:20.508Z,2880
2018-01-25T10:29:30.771Z,2836
2018-01-25T10:30:42.103Z,2844
2018-01-25T10:31:52.304Z,2820
2018-01-25T10:33:02.492Z,2968
2018-01-25T10:34:12.639Z,3108
2018-01-25T10:35:22.787Z,3392
2018-01-25T10:36:32.939Z,3728
2018-01-25T10:37:43.059Z,3868
2018-01-25T10:38:53.192Z,3472
2018-01-25T10:40:03.360Z,3208
2018-01-25T10:41:13.511Z,3456
2018-01-25T10:42:23.708Z,3680
2018-01-25T10:43:34.011Z,3676
2018-01-25T10:44:44.259Z,3664
2018-01-25T10:45:54.459Z,3560
2018-01-25T10:47:04.632Z,3256
2018-01-25T10:48:14.864Z,3168
2018-01-25T10:49:25.144Z,3012
2018-01-25T10:50:35.015Z,2996
2018-01-25T10:51:45.156Z,2676
2018-01-25T10:52:55.342Z,2676
2018-01-25T10:54:05.554Z,2852
2018-01-25T10:55:15.787Z,3176
2018-01-25T10:56:26.040Z,3724
2018-01-25T10:57:35.918Z,3800
2018-01-25T10:58:46.088Z,3456
2018-01-25T10:59:56.224Z,2796
2018-01-25T11:01:06.384Z,2288
2018-01-25T11:02:16.542Z,1992
2018-01-25T11:03:26.739Z,1880
2018-01-25T11:04:36.958Z,1780
2018-01-25T11:05:47.176Z,1716
2018-01-25T11:06:57.353Z,1860
2018-01-25T11:08:07.481Z,2068
2018-01-25T11:09:17.635Z,2076
2018-01-25T11:10:27.769Z,2032
2018-01-25T11:11:37.990Z,2004
2018-01-25T11:12:48.210Z,1972
2018-01-25T11:13:58.407Z,1992
2018-01-25T11:15:08.554Z,1932
2018-01-25T11:16:18.440Z,1940
2018-01-25T11:17:28.584Z,1968
2018-01-25T11:18:38.708Z,2032
2018-01-25T11:19:48.888Z,2088
2018-01-25T11:20:59.018Z,2068
2018-01-25T11:22:09.163Z,2132
2018-01-25T11:23:19.269Z,2288
2018-01-25T11:24:29.467Z,2412
2018-01-25T11:25:39.624Z,2508
2018-01-25T11:26:49.887Z,2560
2018-01-25T11:28:00.112Z,2476
2018-01-25T11:29:10.352Z,2408
2018-01-25T11:30:20.589Z,2404
2018-01-25T11:31:30.541Z,2488
2018-01-25T11:32:40.758Z,2500
2018-01-25T11:33:50.897Z,2496
2018-01-25T11:35:01.011Z,2452
2018-01-25T11:36:11.241Z,2356
2018-01-25T11:37:21.396Z,2372
2018-01-25T11:38:31.536Z,2468
2018-01-25T11:39:41.712Z,2656
2018-01-25T11:40:51.861Z,2860
2018-01-25T11:42:05.337Z,3036
2018-01-25T11:43:15.437Z,3128
2018-01-25T11:44:25.603Z,3108
2018-01-25T11:45:35.773Z,3184
2018-01-25T11:46:45.947Z,3288
2018-01-25T11:47:56.093Z,3328
2018-01-25T11:49:06.243Z,3192
2018-01-25T11:50:16.343Z,3124
2018-01-25T11:51:26.533Z,3084
2018-01-25T11:52:36.701Z,3104
2018-01-25T11:53:46.829Z,3008
2018-01-25T11:54:57.127Z,3032
2018-01-25T11:56:07.355Z,2908
2018-01-25T11:57:17.559Z,2632
2018-01-25T11:58:27.750Z,2392
2018-01-25T11:59:37.964Z,2208
2018-01-25T12:00:48.147Z,2092
2018-01-25T12:01:58.421Z,2124
2018-01-25T12:03:08.711Z,2168
2018-01-25T12:04:18.568Z,2176
2018-01-25T12:05:28.679Z,2156
2018-01-25T12:06:38.869Z,2116
2018-01-25T12:07:48.990Z,2064
2018-01-25T12:08:59.221Z,1980
2018-01-25T12:10:09.446Z,1996
2018-01-25T12:11:19.570Z,2028
2018-01-25T12:12:29.728Z,2020
2018-01-25T12:13:40.876Z,2008
2018-01-25T12:14:51.006Z,2056
2018-01-25T12:16:01.150Z,2220
2018-01-25T12:17:11.346Z,2364
2018-01-25T12:18:21.525Z,2416
2018-01-25T12:19:31.818Z,2424
2018-01-25T12:20:42.006Z,2424
2018-01-25T12:21:52.149Z,2460
2018-01-25T12:23:02.403Z,2444
2018-01-25T12:24:12.606Z,2360
2018-01-25T12:25:22.810Z,2280
2018-01-25T12:26:33.976Z,2364
2018-01-25T12:27:44.273Z,2436
2018-01-25T12:28:54.516Z,2424
2018-01-25T12:30:04.669Z,2356
2018-01-25T12:31:14.916Z,2388
2018-01-25T12:32:25.234Z,2476
2018-01-25T12:33:35.485Z,2628
2018-01-25T12:34:45.619Z,2836
2018-01-25T12:35:55.815Z,3048
2018-01-25T12:37:06.022Z,3260
2018-01-25T12:38:16.260Z,3432
2018-01-25T12:39:26.518Z,3496
2018-01-25T12:40:36.699Z,3364
2018-01-25T12:41:46.926Z,3256
2018-01-25T12:42:57.200Z,3240
2018-01-25T12:44:07.504Z,3180
2018-01-25T12:45:17.678Z,3112
2018-01-25T12:46:27.900Z,3052
2018-01-25T12:47:38.076Z,3052
2018-01-25T12:48:48.298Z,3044
2018-01-25T12:49:58.505Z,3076
2018-01-25T12:51:08.717Z,3244
2018-01-25T12:52:18.885Z,3420
2018-01-25T12:53:29.175Z,3592
2018-01-25T12:54:39.398Z,3564
2018-01-25T12:55:49.625Z,3412
2018-01-25T12:56:59.760Z,3248
2018-01-25T12:58:09.994Z,3132
2018-01-25T12:59:19.989Z,3084
2018-01-25T13:00:30.148Z,3108
2018-01-25T13:01:40.333Z,3220
2018-01-25T13:02:50.480Z,3364
2018-01-25T13:04:00.609Z,3376
2018-01-25T13:05:10.777Z,3304
2018-01-25T13:06:21.172Z,3168
2018-01-25T13:07:31.392Z,3152
2018-01-25T13:08:41.512Z,3228
2018-01-25T13:09:51.688Z,3340
2018-01-25T13:11:02.934Z,3308
2018-01-25T13:12:13.122Z,3272
2018-01-25T13:13:23.093Z,3248
2018-01-25T13:14:33.251Z,3180
2018-01-25T13:15:43.441Z,3088
2018-01-25T13:16:53.641Z,3008
2018-01-25T13:18:03.687Z,2964
2018-01-25T13:19:14.031Z,2980
2018-01-25T13:20:24.257Z,3044
2018-01-25T13:21:34.502Z,3072
2018-01-25T13:22:44.389Z,3052
2018-01-25T13:23:54.546Z,2932
2018-01-25T13:25:04.772Z,2852
2018-01-25T13:26:14.922Z,2876
2018-01-25T13:27:25.086Z,2928
2018-01-25T13:28:35.242Z,2872
2018-01-25T13:29:45.133Z,2764
2018-01-25T13:30:55.367Z,2716
2018-01-25T13:32:05.538Z,2636
2018-01-25T13:33:15.801Z,2620
2018-01-25T13:34:26.005Z,2632
2018-01-25T13:35:36.197Z,2580
2018-01-25T13:36:46.338Z,2556
2018-01-25T13:37:56.716Z,2516
2018-01-25T13:39:06.905Z,2468
2018-01-25T13:40:17.117Z,2372
2018-01-25T13:41:27.244Z,2176
2018-01-25T13:42:37.379Z,2076
2018-01-25T13:43:47.566Z,1956
2018-01-25T13:44:57.721Z,1908
2018-01-25T13:46:07.928Z,1832
2018-01-25T13:47:18.077Z,1764
2018-01-25T13:48:28.285Z,1688
2018-01-25T13:49:38.463Z,1740
2018-01-25T13:50:48.621Z,1760
2018-01-25T13:51:58.485Z,1724
2018-01-25T13:53:08.644Z,1652
2018-01-25T13:54:18.784Z,1528
2018-01-25T13:55:28.963Z,1400
2018-01-25T13:56:38.907Z,1372
2018-01-25T13:57:49.073Z,1452
2018-01-25T13:58:59.281Z,1404
2018-01-25T14:00:09.137Z,1300
2018-01-25T14:01:19.373Z,1384
2018-01-25T14:02:29.603Z,1400
2018-01-25T14:03:39.833Z,1304
2018-01-25T14:04:50.030Z,1264
2018-01-25T14:06:00.196Z,1312
2018-01-25T14:07:10.385Z,1544
2018-01-25T14:08:20.540Z,1772
2018-01-25T14:09:30.678Z,1908
2018-01-25T14:10:40.620Z,1896
2018-01-25T14:11:50.809Z,1736
2018-01-25T14:13:00.941Z,1560
2018-01-25T14:14:10.745Z,1496
2018-01-25T14:15:20.905Z,1504
2018-01-25T14:16:31.107Z,1476
2018-01-25T14:17:41.277Z,1372
2018-01-25T14:18:51.161Z,1308
2018-01-25T14:20:01.297Z,1344
2018-01-25T14:21:11.488Z,1412
2018-01-25T14:22:21.630Z,1460
2018-01-25T14:23:31.796Z,1512
2018-01-25T14:24:42.089Z,1532
2018-01-25T14:25:52.353Z,1532
2018-01-25T14:27:02.533Z,1352
2018-01-25T14:28:12.803Z,1200
2018-01-25T14:29:23.012Z,1112
2018-01-25T14:30:33.166Z,1120
2018-01-25T14:31:43.361Z,1108
2018-01-25T14:32:53.619Z,1080
2018-01-25T14:34:03.762Z,1040
2018-01-25T14:35:13.711Z,972
2018-01-25T14:36:23.833Z,896
2018-01-25T14:37:34.043Z,856
2018-01-25T14:38:43.972Z,824
2018-01-25T14:39:54.160Z,804
2018-01-25T14:41:04.308Z,792
2018-01-25T14:42:14.518Z,800
2018-01-25T14:43:24.744Z,804
2018-01-25T14:44:34.929Z,804
2018-01-25T14:45:45.109Z,836
2018-01-25T14:46:55.332Z,868
2018-01-25T14:48:05.503Z,880
2018-01-25T14:49:15.681Z,896
2018-01-25T14:50:25.880Z,904
2018-01-25T14:51:36.028Z,872
2018-01-25T14:52:46.187Z,820
2018-01-25T14:53:56.340Z,740
2018-01-25T14:55:06.477Z,672
2018-01-25T14:56:16.369Z,632
2018-01-25T14:57:26.536Z,592
2018-01-25T14:58:36.427Z,544
2018-01-25T14:59:46.801Z,520
2018-01-25T15:00:57.024Z,496
2018-01-25T15:02:07.199Z,484
2018-01-25T15:03:17.132Z,460
2018-01-25T15:04:27.454Z,444
2018-01-25T15:05:37.596Z,432
2018-01-25T15:06:47.746Z,416
2018-01-25T15:07:57.954Z,400
2018-01-25T15:09:08.228Z,384
2018-01-25T15:10:18.137Z,372
2018-01-25T15:11:27.974Z,356
2018-01-25T15:12:38.472Z,344
2018-01-25T15:13:48.626Z,328
2018-01-25T15:14:58.789Z,308
2018-01-25T15:16:08.991Z,304
2018-01-25T15:17:19.298Z,296
2018-01-25T15:18:29.437Z,288
2018-01-25T15:19:39.662Z,272
2018-01-25T15:20:49.902Z,256
2018-01-25T15:22:00.049Z,240
2018-01-25T15:23:10.256Z,228
2018-01-25T15:24:20.549Z,224
2018-01-25T15:25:30.758Z,212
2018-01-25T15:26:40.924Z,212
2018-01-25T15:27:51.096Z,216
2018-01-25T15:29:01.370Z,216
2018-01-25T15:30:11.596Z,212
2018-01-25T15:31:21.518Z,196
2018-01-25T15:32:31.683Z,180
2018-01-25T15:33:41.891Z,168
2018-01-25T15:34:52.034Z,152
2018-01-25T15:36:02.238Z,140
2018-01-25T15:37:12.475Z,124
2018-01-25T15:38:22.671Z,112
2018-01-25T15:39:32.869Z,104
2018-01-25T15:40:43.141Z,92
2018-01-25T15:41:53.389Z,88
2018-01-25T15:43:03.716Z,80
2018-01-25T15:44:13.886Z,72
2018-01-25T15:45:23.775Z,64
2018-01-25T15:46:33.981Z,56
2018-01-25T15:47:44.188Z,52
2018-01-25T15:48:54.434Z,44
2018-01-25T15:50:04.690Z,44
2018-01-25T15:51:14.904Z,36
2018-01-25T15:52:25.035Z,36
2018-01-25T15:53:35.276Z,28
2018-01-25T15:54:45.407Z,28
2018-01-25T15:55:55.552Z,24
2018-01-25T15:57:05.743Z,20
2018-01-25T15:58:15.911Z,16
2018-01-25T15:59:26.092Z,16
2018-01-25T16:00:36.362Z,12
2018-01-25T16:01:46.264Z,12
2018-01-25T16:02:56.403Z,12
2018-01-25T16:04:06.641Z,8
2018-01-25T16:05:16.959Z,8
2018-01-25T16:06:27.120Z,8
2018-01-25T16:07:37.361Z,4
2018-01-25T16:08:47.542Z,4
2018-01-25T16:09:57.681Z,4
2018-01-25T16:11:07.951Z,4
2018-01-25T16:12:18.111Z,0
2018-01-25T16:13:28.458Z,4
2018-01-25T16:14:38.613Z,4
2018-01-25T16:15:48.844Z,0
2018-01-25T16:16:59.111Z,0
2018-01-25T16:18:09.287Z,0
2018-01-25T16:19:19.446Z,0
2018-01-25T16:20:29.616Z,0
2018-01-25T16:21:39.990Z,0
2018-01-25T16:22:50.188Z,0
2018-01-25T16:24:00.364Z,0
2018-01-25T16:25:10.531Z,0